the time You need

GranGiro Sardegna

Orosei (Cala Ginepro) - T4

Cala Ginepro, Nuoro   Italy

mercoledì 25 aprile 2012

Percorsi

LUNGO - 160.0 Km

 

CORTO - 111.0 Km

Servizi

Official TimingPunti KS RankingGara Convenzionata

Chip

Personal Chip Daily Chip

Circuiti

GiroSardegna

CLASSIFICA

LUNGO - 160.0 Km

Pos Atleta Sesso Cat PosC Team Tempo Media RTime
151 MOTISI MAURIZIA F W2 7 FRW CICLI MATTEONI 07:47:57.00 20,52 07:47:54.54
150 DOWER JOHN M D 22 TRIPLESHOT-SPINNAKERS CYCLING 07:13:25.90 22,15 07:13:03.70
149 WADFWORTH JAYNE F W2 6 DE LAUNE CYCLING CLUB 07:02:30.50 22,72 07:02:05.10
148 ZANANDREA TOMAS M B 29 FRW CICLI MATTEONI 06:44:40.80 23,72 06:44:36.60
147 GILL MARCUS M F 12 TRIPLESHOT-SPINNAKERS CYCLING 06:44:38.60 23,73 06:44:17.40
146 FRESU DOMENICO M E 30 INDIVIDUALE 06:33:55.00 24,37 06:33:15.15
145 ANGELI STEFANO M D 21 ASD NUOVO PARCO DEI CICLIEGI 06:33:54.60 24,37 06:33:38.40
144 TOTTI MAURO M G 6 ASD NUOVO PARCO DEI CICLIEGI 06:33:54.10 24,37 06:33:40.00
143 SPIERS DAVE M E 29 TRIPLESHOT-SPINNAKERS CYCLING 06:30:05.80 24,61 06:29:45.00
142 GRADINGER MATTHIAS M A 21 INDIVIDUALE 06:29:35.60 24,64 06:29:17.00
141 KORHONEN ILKKA M B 28 SALA-GYM LEHTIKANGAS 06:29:34.90 24,64 06:29:01.90
140 HERR CHARLOTTE F W2 5 VC-INTERNATIONAL BRIG 06:29:30.90 24,65 06:29:30.90
139 DABBENI MARIO M H 2 ASD KILOMETROZERO 06:28:16.00 24,73 06:27:42.42
138 CASADEI CARLO M F 11 GC CASTIGLIONESE 06:28:14.70 24,73 06:27:36.00
137 AUGUSTI STEFANO M D 20 GS RUNNER 06:17:44.90 25,41 06:17:34.70
136 BROENS RIC M D 19 WV DE MAASKANT 06:09:33.80 25,98 06:08:49.40
135 VERHOEVEN LAURA F W2 4 HECO 06:09:33.75 25,98 06:08:52.52
134 COVI MARIANO M E 28 SC ALTAIR 06:05:55.10 26,24 06:05:42.42
133 NEDERVEEN FRANK M A 20 WVA 06:00:49.10 26,61 06:00:39.00
132 ZUCCHI VALTER M F 10 ASD PEDALE BOLOGNESE 05:59:46.90 26,68 05:59:08.60
131 BRZASK-MAKIELA STANISLAW M A 19 INDIVIDUALE 05:59:46.60 26,68 05:59:26.26
130 WALLMEYER MARCUS M B 27 SUPERNOVA - LIGHTSCOM 05:56:08.90 26,96 05:55:49.10
129 BROGNARA DAMIANO M E 27 TEAM BCICLI GALASSIA 05:56:08.60 26,96 05:55:38.10
128 KERSTEN RICHARD M C 21 TEAM FIETS 05:53:58.10 27,12 05:53:18.18
127 PEISYN ANNEMARIE F W2 3 INDIVIDUALE 05:46:46.00 27,68 05:46:32.32
126 SALVI CLAUDIA F W2 2 ASD BEAUTIFUL LODI 05:46:45.70 27,69 05:46:38.10
125 SAMMARINI MAURIZIO ANTONIO M E 26 FRW CICLI MATTEONI 05:46:35.00 27,70 05:46:29.29
124 BERGONZONI GIANCARLO M F 9 ASD NUOVO PARCO DEI CICLIEGI 05:46:22.80 27,72 05:46:09.30
123 WURDIG DIETER M F 8 RSV IRSCHENBERG 05:46:22.60 27,72 05:45:57.57
122 HAKENKRUGER REINDER JAN M A 18 TEAM FIETS 05:46:22.20 27,72 05:45:43.43
121 MEIER JOSEF M G 5 VC-INTERNATIONAL BRIG 05:46:19.20 27,72 05:45:55.55
120 TRULLI JARNO M B 26 INDIVIDUALE 05:46:18.70 27,72 05:45:40.70
119 VITARELLI GIANNI M C 20 INDIVIDUALE 05:46:18.10 27,72 05:45:41.41
118 COCCO MARCO M F 7 ASD EXTREME BIKE CAGLIARI 05:46:17.50 27,72 05:45:50.30
117 TEUNIS GERRIT M E 25 CYCLOTEAMNL 05:46:16.20 27,72 05:46:11.11
116 PUGLIOLI MIRKO M B 25 ASD TEAM 100 RPM 05:40:16.90 28,21 05:40:11.20
115 MURRU SANDRO M E 24 ASD EXTREME BIKE CAGLIARI 05:40:16.20 28,21 05:39:46.46
114 SIGNORI RAFFAELE M F 6 ASD TEAM MASSARDI 05:40:14.90 28,22 05:40:00.50
113 POZZI CRISTIAN M B 24 US BORMIESE 05:40:14.60 28,22 05:39:52.60
112 ROMANI NICOLA M B 23 US BORMIESE 05:40:14.20 28,22 05:39:48.20
111 LOVIGU ANTONIO M G 4 SC GALLURA 05:40:13.00 28,22 05:39:45.45
110 PIATTOLI MAURIZIO M C 19 SC ALTAIR 05:40:12.20 28,22 05:39:45.45
109 ARGIOLAS CRISTIAN M B 22 ASD EXTREME BIKE CAGLIARI 05:40:11.40 28,22 05:39:40.40
108 LAI ADRIANO M D 18 ASD EXTREME BIKE CAGLIARI 05:40:11.20 28,22 05:39:51.20
107 PILOTTI ROBERTO M E 23 INDIVIDUALE 05:40:11.00 28,22 05:39:27.27
106 MORANDUZZO SIMONE M C 18 US BORMIESE 05:40:10.60 28,22 05:39:48.30
105 BRUGNANI MAURO M B 21 BICYCLE TEAM TANFOGLIO 05:40:09.60 28,22 05:39:54.54
104 GESI DIEGO M F 5 ASD SASSI 05:40:09.50 28,22 05:39:42.42
103 JANSEN JURGEN M B 20 INDIVIDUALE 05:40:08.50 28,22 05:39:51.51
102 TIBURZI FABRIZIO M D 17 GS POLIZIA STRADALE 05:40:08.40 28,22 05:39:49.49
101 GABRIELLINI LUCA M E 22 ASD MAX LELLI 05:40:08.20 28,22 05:39:55.10
100 PII GINO M C 17 ASD GRUPPO TONDI SPORT 05:38:06.40 28,39 05:37:57.30
99 LEMMI MAURIZIO M E 21 GFDD ALTOPACK PROTOTECH 05:36:55.80 28,49 05:36:22.70
98 RUDOLF CHRISTIAN M B 19 DE LAUNE CYCLING CLUB 05:36:55.78 28,49 05:36:31.28
97 ONNEN MARC M E 20 GAUL 05:36:55.75 28,49 05:36:28.28
96 RIGHINI ROBERTO M H 1 SPORTING CLUB 05:36:55.40 28,49 05:36:53.00
95 PERSICO FRANCESCO M F 4 INDIVIDUALE 05:36:55.10 28,49 05:36:30.30
93 RAGAZZO GERARDO M F 3 DLF VIRGINIA 05:36:54.90 28,50 05:36:54.90
94 CAVATORTI SERGIO M G 3 ASD COOPERATORI RE 05:36:55.00 28,49 05:36:45.45
92 VITTOR STEFANO M D 16 SA VIDA NOA 05:36:54.80 28,50 05:36:39.40
91 SOLLA GIOVANNI M D 15 GS RUNNER 05:36:54.60 28,50 05:36:32.60
90 BOGE MICHAEL M E 19 VC-INTERNATIONAL BRIG 05:36:54.20 28,50 05:36:31.31
89 SOTTOPIETRA FAUSTO M D 14 CC SENZAFRENI 05:33:17.60 28,80 05:32:43.60
88 MOTTA ROBERTO M E 18 ASD MOVING TEAM 05:29:42.80 29,12 05:29:06.00
87 SMIT KEES M F 2 INDIVIDUALE 05:29:42.30 29,12 05:29:31.31
86 BAZZANI MICHELE M C 16 BIKE SHOP PEDALANDO 05:29:42.20 29,12 05:29:41.41
85 VERHEIJEN JOOST M B 18 EQUIPE CAMPIONISSIMO VC TICINO 05:29:41.80 29,12 05:29:35.30
84 KOUWENBERG COEN M C 15 TEAM FIETS 05:29:41.40 29,12 05:29:00.00
83 DE KINKELDER FRED M G 2 CYCLOTEAMNL 05:29:41.10 29,12 05:29:36.36
82 MURRU LUIGI M E 17 ASD EXTREME BIKE CAGLIARI 05:29:40.40 29,12 05:29:11.11
81 ARNDT GREGOR M B 17 SUPERNOVA - LIGHTSCOM 05:28:11.60 29,25 05:27:55.10
80 STEEL CLIFF M D 13 BRIXTON CYCLES 05:26:32.30 29,40 05:26:09.10
79 SIGNORI MARINO M E 16 ISDC TEAM PEZZETTI 05:18:54.30 30,10 05:18:42.42
78 DAGA SALVATORE M D 12 ASD ALGHERO BIKE 05:18:54.10 30,10 05:18:43.43
77 BREUKER RUUD M A 17 INDIVIDUALE 05:18:53.70 30,11 05:18:39.30
76 BOERI NICOLA M A 16 ISDC TEAM PEZZETTI 05:18:53.65 30,11 05:18:38.05
75 WALZLEIN GERHARD M E 15 RC HERPERSDORF 1919 05:18:53.40 30,11 05:18:35.35
74 GUIZZARO ANGELO M C 14 FRECCE ROSSE ROWABIKE 05:18:53.00 30,11 05:18:18.18
73 GABELLINI RICCARDO M E 14 PRESTIGIO ROYAL TEAM 05:18:52.70 30,11 05:18:42.30
72 DE ANGELI ENRICO M E 13 RIDE TO FINISH 05:18:52.30 30,11 05:18:18.18
71 BOSCH ERIK JAN M E 12 BWA 05:18:51.80 30,11 05:18:19.40
70 KUEHL ANDREAS M D 11 PALO ALTO FIDIBC CTEAM 05:18:51.75 30,11 05:18:37.37
69 DE VLIEGER BRAM M A 15 WVA 05:18:51.60 30,11 05:18:38.38
68 DETTORI LUCA M E 11 SC REDENTORE 05:18:51.55 30,11 05:18:29.45
67 FILA ROBERTO M G 1 PEDALE COSSATESE 05:18:51.20 30,11 05:18:43.43
66 NASTASI DOMENICO M C 13 ROERO SPEED BIKE 05:18:50.20 30,11 05:18:43.20
65 MUSCAS GIANLUCA M A 14 EXTREME BIKE 05:18:50.00 30,11 05:18:32.32
64 LO PICCOLO ANTONIO M A 13 PALO ALTO FIDIBC CTEAM 05:18:49.95 30,11 05:18:34.15
63 PRATI MARIA CRISTINA F W2 1 FRW CICLI MATTEONI 05:18:49.70 30,11 05:18:47.10
62 VOLONTE´ PIERENRICO M E 10 ASD JOLLYWEAR EKOI ALBED 05:18:49.40 30,11 05:18:11.11
61 MANGANARO FILIPPO M C 12 CGC SAN BERNARDINO 05:18:49.35 30,11 05:18:06.15
60 KEIJER ELTJO M B 16 FLETS CLUB LEDIGERE 05:18:49.30 30,11 05:18:38.38
59 BRUNNER HANS PETER M E 9 VC-INTERNATIONAL BRIG 05:18:49.00 30,11 05:18:39.39
58 VAN LAAR HENK M D 10 EQUIPE CAMPIONISSIMO VC TICINO 05:18:48.80 30,11 05:18:44.60
57 GIANETTI ALBERTO M E 8 CGC SAN BERNARDINO 05:18:48.70 30,11 05:18:05.05
56 VERDIJK GERT JAN M B 15 TEAM FIETS 05:18:48.10 30,11 05:18:36.36
55 BERTOZZI DANIELE M E 7 FRW CICLI MATTEONI 05:18:48.00 30,11 05:18:48.00
54 DOLFIN BART M F 1 BWA 05:18:47.90 30,11 05:18:16.40
53 NOCITO MICHELE M C 11 ASD ALBA BIKE TEAM 05:17:49.60 30,21 05:17:19.40
52 VITOLANO LORENZO M E 6 CICLOAMATORI SEDRIANO 05:17:48.20 30,21 05:17:40.40
51 VAN DER PLAS BERT M C 10 INDIVIDUALE 05:15:22.00 30,44 05:14:57.57
50 VAN BEELEN PETER M E 5 CICLOCLUB DE SPARTAAN 05:11:23.90 30,83 05:11:11.20
49 MAROCCHI FRANCO M D 9 SPRINT BIKE LUMEZZANE 05:11:22.30 30,83 05:11:19.19
48 PARKER STEPHEN M C 9 CS GRUPETO 05:11:21.90 30,83 05:10:39.90
47 DE LIMA DIAS IVO M C 8 SETTA MATERIAIS ELETRICOS 05:11:21.80 30,83 05:10:50.80
46 MURRU STEFANO M A 12 SC IL FORNAIO MACOMER 05:10:00.10 30,97 05:09:45.45
45 SCHIBLI MARKUS M B 14 VC-INTERNATIONAL BRIG 05:08:59.80 31,07 05:08:41.10
44 SCHIAVI DAVIDE M C 7 DLF VIRGINIA 05:08:59.30 31,07 05:08:27.27
43 BONFIGLIO ALFREDO M E 4 CICLI DI LORENZO 05:08:57.90 31,07 05:08:50.20
41 KORHONEN OLLI M A 11 SALA-GYM LEHTIKANGAS 05:08:57.40 31,07 05:08:23.10
42 CARDELLINI DAVIDE M B 13 PRESTIGIO ROYAL TEAM 05:08:57.50 31,07 05:08:20.00
40 MELONI GIANCARLO M E 3 SC IL FORNAIO MACOMER 05:08:57.30 31,07 05:08:53.20
39 BURTI GUIDO M C 6 TEAM BATTAGLIN 05:08:56.90 31,07 05:08:32.00
38 CANCEDDA ALESSIO M A 10 PISCINA IRGAS 05:08:56.85 31,07 05:08:39.75
37 THEOBALDS MATTHEW M A 9 CS GRUPETO 05:08:56.10 31,07 05:08:11.11
35 BIANCHI REMO M B 12 US BORMIESE 04:56:34.40 32,37 04:56:11.20
36 STANISLAS RICHARD M D 8 UC DE L´OISANS 04:56:34.50 32,37 04:56:26.40
34 PAAL ERIK KRANGSAAS M D 7 TEAM NORVEGIA 04:56:32.80 32,37 04:56:32.80
33 COHEN KEES M D 6 BWA 04:56:31.40 32,38 04:56:02.30
32 SANNA SAMUELE M A 8 SC IL FORNAIO MACOMER 04:56:31.10 32,38 04:56:15.15
31 PROVE EMANUELE M A 7 SC IL FORNAIO MACOMER 04:56:30.80 32,38 04:56:26.10
30 WILLEMS ERIK M C 5 TEAM FIETS 04:56:30.60 32,38 04:56:25.30
29 GENTILI CLAUDIA F W1 1 PRESTIGIO ROYAL TEAM 04:56:30.40 32,38 04:55:57.57
28 CAPOZZOLO FEDERICO M C 4 PRESTIGIO ROYAL TEAM 04:56:30.35 32,38 04:55:54.54
27 SCOLASTICO ANDREA M B 11 PRESTIGIO ROYAL TEAM 04:56:30.20 32,38 04:55:56.56
26 GAFFURI FRANCESCO M B 10 ASD BINDELLA 04:56:29.90 32,38 04:56:18.40
25 RUESINK ERIC M D 5 CYCLOTEAMNL 04:56:29.85 32,38 04:56:21.45
24 BARZASI MARCO M B 9 TEAM BOTTEON VINER 04:56:29.70 32,38 04:56:08.20
23 CUEL DAVIDE M A 6 BREN TEAM TRENTO 04:56:29.60 32,38 04:56:11.50
22 RAVIOLA GIUSEPPE M E 2 AREA 231 04:56:29.20 32,38 04:56:21.21
21 MUSANTE GIORGIO M B 8 ASD TEAM 100 RPM 04:56:29.00 32,38 04:56:24.24
20 GIULIANELLI MORENO M E 1 FRECCE ROSSE ROWABIKE 04:56:28.80 32,38 04:56:00.00
19 FALAVIGNA FABIO M B 7 TURNOVER 04:56:28.60 32,38 04:56:28.50
18 RUTTIMANN STEFAN M D 4 VC-INTERNATIONAL BRIG 04:56:28.20 32,38 04:56:08.08
17 ANTONIOLI MICHELE M B 6 US BORMIESE 04:56:28.15 32,38 04:56:10.10
16 CICERI ROBERTO M A 5 ASD KILOMETROZERO 04:56:28.10 32,38 04:56:27.27
15 WEBB JEFF M C 3 TEAM NORVEGIA 04:56:28.00 32,38 04:56:25.25
14 WOLFKAMP JOS M D 3 CYCLOTEAMNL 04:53:57.40 32,66 04:53:48.00
13 DAZZI MARCO M A 4 GS EUROVELO 04:53:55.90 32,66 04:53:37.80
12 VASCO STEFANO M A 3 ISDC TEAM PEZZETTI 04:53:55.60 32,66 04:53:46.46
11 FANCELLO ALESSANDRO M C 2 GS FANCELLO CICLI ASD 04:53:55.10 32,66 04:53:16.16
10 RUBINI DIEGO M B 5 FREE BIKE TEAM 04:53:54.90 32,66 04:53:54.90
9 VERGANI GABRIELE M A 2 CICLI DI LORENZO 04:51:18.60 32,96 04:50:59.50
8 CASSINI MATTEO M B 4 ASD TEAM 100 RPM 04:51:18.40 32,96 04:51:15.30
7 NEVIN ERIK M B 3 TEAM NORVEGIA 04:51:17.50 32,96 04:51:11.50
6 HUTCHINGS NICOLAS M B 2 CS GRUPETO 04:49:09.30 33,20 04:48:27.27
5 AICARDI FEDERICO M C 1 ISDC TEAM PEZZETTI 04:44:42.30 33,72 04:44:07.07
4 LELLI MASSIMILIANO M D 2 ASD MAX LELLI 04:44:39.80 33,73 04:43:57.40
3 TUGNOLI DAVIDE M D 1 INDIVIDUALE 04:44:39.50 33,73 04:44:05.05
2 CASTELNOVO PAOLO M A 1 UC EZIO BORGNA ISDC 04:44:39.45 33,73 04:44:28.15
1 CINNI DEVIS M B 1 FRECCE ROSSE ROWABIKE 04:44:39.20 33,73 04:44:05.05

CORTO - 111.0 Km

Pos Atleta Sesso Cat PosC Team Tempo Media RTime
259 TINCANI ROSSANO M C 37 ASD COOPERATORI RE 04:58:05.90 22,34 04:57:01.40
258 BECHIS VERA F W2 13 UCAT TORINO 04:55:47.60 22,52 04:54:34.00
257 DONISI RENZO M H 15 LAMACART CYCLING TEAM 04:55:45.80 22,52 04:54:56.10
255 BASILE MARIA LETIZIA F W2 12 TEAM BCICLI GALASSIA 04:55:39.90 22,53 04:54:49.30
256 MARIANI ENZO M H 14 ASD DADA 04:55:40.90 22,53 04:55:21.60
254 SMETS YDA F W2 11 INDIVIDUALE 04:55:39.10 22,53 04:54:36.36
253 MARAFINI MARCO M C 36 TURBIKE ROMA 04:55:36.70 22,53 04:54:15.20
252 FOSSATI ANDREA M G 25 VELOROMA 04:55:35.40 22,53 04:54:12.10
251 GRAZZINI ANGELO M F 21 FREESTYLE TRIATHLON VALDINIEVOLE ASD 04:48:46.40 23,06 04:48:10.10
250 VIRI DAVIDE M E 33 UCAT TORINO 04:46:57.50 23,21 04:45:42.20
249 PRADELLA ENRICO M D 36 PALO ALTO FIDIBC CTEAM 04:46:57.30 23,21 04:46:44.00
248 FANTASIA ANTONIO MICHELE M B 20 ASD LA MADDALENA BIKE 04:43:39.70 23,48 04:42:13.13
246 SURMONT GERALDINE F W1 13 RSLC HOLZKIRCHEN 04:38:02.30 23,95 04:37:11.11
247 HALLER STEPHAN M C 35 TEAM ERDINGER 04:38:03.20 23,95 04:37:11.20
245 HETZEL VIKTORIA F W1 12 RC CONCORDIA 04:38:00.50 23,96 04:36:51.51
244 DAL BELLO MONICA F W2 10 ASD GRANA PADANO BIKE TEAM 04:37:59.70 23,96 04:37:02.02
243 MACCACARO MARTA F W1 11 SMW 04:37:58.00 23,96 04:36:46.46
241 CAROLI SILVIO M E 32 ASD MCONTI 04:37:55.10 23,96 04:36:42.42
242 TROUILLET JEAN LUIS M G 24 INDIVIDUALE 04:37:57.40 23,96 04:37:02.02
240 BENFENATI STEFANO M F 20 ASD NUOVO PARCO DEI CICLIEGI 04:37:51.60 23,97 04:37:10.10
239 ERTELT CHRISTOPH M A 46 INDIVIDUALE 04:37:51.30 23,97 04:36:42.20
238 GALLONE TOMMASO M G 23 GSC CEGLIE MESSAPICA 04:37:50.60 23,97 04:37:14.60
237 ZIEGELDORF JULIA F W1 10 LAMACART CYCLING TEAM 04:37:50.40 23,97 04:36:40.40
235 EVERHARD CARLA F W2 9 CYCLO TEAM NL 04:37:50.00 23,97 04:36:57.57
236 POMASKA FARINA F W1 9 LAMACART CYCLING TEAM 04:37:50.10 23,97 04:36:39.39
234 WOLFF SEBASTIAN M A 45 INDIVIDUALE 04:37:49.90 23,97 04:36:39.80
233 BIANCHI EMANUELE M D 35 ASD MAX LELLI 04:37:49.50 23,97 04:37:46.46
232 SCIARAFFA DONATO M D 34 INDIVIDUALE 04:37:49.40 23,97 04:36:41.41
231 JANAS TOM M A 44 SPORTOGRAFCOM 04:37:49.20 23,97 04:36:38.38
230 CONTEDDU CARMELO M G 22 ASD CICLOAMATORI SINISCOLA 04:37:49.10 23,97 04:37:38.38
229 KOLB ERIK M A 43 SPORTOGRAFCOM 04:37:48.90 23,97 04:36:38.10
227 BRAVACCINI IVAN M D 33 GC CASTIGLIONESE 04:37:47.70 23,98 04:36:52.60
228 LAZZARI DANIELE M B 19 ASD MAX LELLI 04:37:48.80 23,97 04:37:41.80
226 GALLO MAURIZIO M E 31 SC ALTAIR 04:37:16.40 24,02 04:37:12.12
225 GHISU FRANCESCO M F 19 SC PEDALE NUORESE 04:37:14.40 24,02 04:35:57.10
224 TORRACO SAVINO M G 21 CICLISTICA PONTE LAMBRO MILANO 04:37:07.50 24,03 04:36:49.49
222 CARTA PASQUALINO M C 34 SC REDENTORE 04:35:20.20 24,19 04:34:19.19
223 DE ANGELIS STEFANO M G 20 ASD VELO ROMA 04:35:48.20 24,15 04:34:52.52
221 MONALDINI DANIELE M F 18 FRW CICLI MATTEONI 04:24:05.60 25,22 04:23:07.20
220 PRIOLI SANDRA F W2 8 FRW CICLI MATTEONI 04:24:01.00 25,23 04:23:04.04
219 TAVELLA GUGLIELMO M H 13 ASD GRUPPO TERRE DELLA GRANDA 04:23:54.70 25,24 04:23:42.10
218 BONANOMI FERNANDO M E 30 POLISPORTIVA COM ARZACHENA 04:23:36.00 25,27 04:23:08.00
217 ALIAS PIERANTONIO M F 17 EXTREME BIKE 04:23:27.90 25,28 04:22:22.00
216 VESTRI ROLANDO M H 12 INDIVIDUALE 04:23:27.40 25,28 04:23:23.23
214 MARCHI RENZO M D 32 ASD GIORDANA TEAM 04:23:27.10 25,28 04:22:36.10
215 TROIANI ANDREA M C 33 LAMACART CYCLING TEAM 04:23:27.35 25,28 04:22:39.39
213 PICCOLO ALESSIA F W2 7 ASD GIORDANA TEAM 04:23:26.60 25,28 04:22:38.38
212 FOIS MARIO GIUSEPPE M C 32 SC PEDALE NUORESE 04:23:26.10 25,28 04:22:23.23
210 DI MARCO GIANCARLO M C 30 PRESTIGIO ROYAL TEAM 04:18:48.30 25,73 04:17:53.20
211 ARCADU VINCENZO M C 31 SC PATTADA 04:21:28.60 25,47 04:20:04.00
209 PIETRANGELI ROBERTO M C 29 TURBIKE ROMA 04:18:47.60 25,74 04:17:29.00
208 PATRIGNANI SONIA F W1 8 FRECCE ROSSE ROWABIKE 04:18:45.90 25,74 04:17:46.70
206 VAN WERVEN HANS M E 29 INDIVIDUALE 04:18:11.50 25,80 04:17:29.30
207 SPADACCINI ANTONIO M G 19 CICLO CLUB VASTO 04:18:18.30 25,78 04:17:52.20
205 PORCU VINCENZO LUIGI M G 18 ASD TRUMA BIKERS THIESI 04:18:07.60 25,80 04:16:51.30
204 ROGERS ESTELLE F W1 7 CS GRUPETO 04:18:03.90 25,81 04:17:17.10
203 ROSA PAOLO M D 31 ASD CICLI LENZI 04:17:43.60 25,84 04:16:54.20
202 BANDINU MAURIZIO M G 17 SC PEDALE NUORESE 04:13:54.40 26,23 04:12:53.30
201 NESPOLINI MARIO DOMENICO M F 16 TEAM IACCOBIKE CERAMICHE PANARIA 04:13:53.10 26,23 04:13:22.00
200 PORCU GIUSEPPE M D 30 BIKE TEAM DEMURTAS NUORO 04:13:51.60 26,24 04:12:52.20
199 BATTAGLIA GIULIANO M G 16 GS GAMBELLINO 04:13:49.90 26,24 04:13:49.10
197 CATOGNO FABIO CARLO M C 28 ASD ALGHERO BIKE 04:13:48.90 26,24 04:12:53.70
198 BAZZANO IGOR M D 29 UC PIOMBINO 04:13:49.80 26,24 04:13:01.80
196 PUCCI EUGENIO M G 15 ASD GS AMICI DEL PEDALE ROCCA PRIORA 04:13:48.70 26,24 04:13:38.00
195 CASTAGNA GIANNI M H 11 GS FORMIGOSA 04:13:48.00 26,24 04:13:22.22
194 SALCICCIA MARCELLO M E 28 ASD SMIRRA BIKE 04:11:53.40 26,44 04:11:28.28
192 EMMASI ALVERIO M H 10 EQUIPE CAMPIONISSIMO VC TICINO 04:05:33.00 27,12 04:05:21.21
193 FURNO GIUSEPPE M A 42 INDIVIDUALE 04:07:28.70 26,91 04:07:22.00
191 FERRARO PAOLO M D 28 LAMACART CYCLING TEAM 04:05:32.70 27,12 04:04:44.10
190 TORRICELLA GIUSEPPE M C 27 ASD MOVING TEAM 04:05:32.20 27,12 04:05:22.22
188 FANARI PAOLO GIOVANNI M F 15 UC SIMAXIS 04:04:09.50 27,28 04:03:29.29
189 SANTILLI PAOLO M G 14 LAMACART CYCLING TEAM 04:05:31.50 27,13 04:04:44.50
187 WALZLEIN DORIS F W2 6 RC HERPERSDORF 1919 04:04:05.90 27,29 04:03:43.40
186 VAN HERZEELE JOHAN M F 14 INDIVIDUALE 04:04:05.80 27,29 04:03:24.30
184 HERMSEN JAN M B 18 INDIVIDUALE 04:04:05.20 27,29 04:03:01.10
185 GUERRI MARIO M F 13 EMPORIO DEL CICLO 04:04:05.50 27,29 04:03:42.00
183 BUCCI GIUSEPPE M G 13 TURBIKE ROMA 03:57:46.90 28,01 03:56:26.50
182 MALINI CAMILLO M H 9 BRONTOLOBIKE ASD 03:57:39.60 28,02 03:57:00.10
181 VONA PETER M E 27 LAMACART CYCLING TEAM 03:57:38.60 28,03 03:57:23.23
180 SARTORI DENNIS M F 12 LA BICICLETTA 03:57:38.40 28,03 03:57:22.00
178 DUPERRET ANDRE M D 27 RC CONCORDIA 03:57:38.15 28,03 03:56:31.05
179 ROESER ACHIM M C 26 MSG LINDAU 03:57:38.20 28,03 03:56:19.19
177 TEOLDI TARCISIO M E 26 GC CERESIO 03:54:53.90 28,35 03:54:24.20
176 VISENTIN ADRIAN M F 11 LAMACART CYCLING TEAM 03:54:53.70 28,35 03:54:39.39
175 GALLUS CARLO M D 26 DEPT PORTO TORRES 03:54:53.30 28,35 03:53:58.58
174 BETTEGHELLA CRISTIANO M C 25 SMW 03:54:53.25 28,35 03:54:45.05
172 CICINELLI ARDUINO M E 24 TEAM GURU 03:54:52.70 28,36 03:54:52.70
173 BELLIGOLI DAVIDE M E 25 LAMACART CYCLING TEAM 03:54:53.20 28,35 03:54:07.07
171 PALAZZO LAVINIA F W2 5 ASD SMIRRA BIKE 03:54:52.50 28,36 03:54:49.49
170 SCHIRALLI DOMENICO M D 25 ASD SMIRRA BIKE 03:54:52.45 28,36 03:54:50.25
169 CURATI ALESSANDRO M C 24 ASD SMIRRA BIKE 03:54:52.00 28,36 03:54:49.49
168 CORDEDDU LEONARDO M C 23 ASD EXTREME BIKE CAGLIARI 03:54:50.80 28,36 03:53:45.10
167 MULTINEDDU LAURA F W2 4 AMSPO CALANGIANUS 03:50:38.20 28,88 03:49:32.32
166 PIGA GIOVANNI ANDREA M E 23 AMSPO CALANGIANUS 03:50:38.10 28,88 03:49:31.31
165 SINATRA CRISTIAN M C 22 ASD MOVING TEAM 03:50:24.30 28,91 03:49:58.00
164 ROSSI PANTALEO M F 10 GS FANCELLO CICLI ASD 03:50:11.40 28,93 03:48:54.30
162 LODDO MASSIMO M B 17 GS FANCELLO CICLI ASD 03:49:54.80 28,97 03:48:39.30
163 MELONI ANTONIO M A 41 PISCINA IRGAS 03:49:59.00 28,96 03:48:40.40
161 ALLAMANDO EDDY M A 40 ROERO SPEED BIKE 03:49:54.60 28,97 03:49:11.30
160 DRYSDALE LARISSA F W2 3 CYCLESPORT GRONINGEN 03:49:48.80 28,98 03:49:48.00
159 STOCCHETTI ILENIA F W1 6 ISDC TEAM PEZZETTI 03:49:48.20 28,98 03:49:12.10
158 SORO ROBERTO M E 22 GS FANCELLO CICLI ASD 03:49:45.50 28,99 03:48:46.46
157 CECCHETTO UGO M E 21 ASD LIVORNO FERRARIS 03:49:45.40 28,99 03:49:42.42
155 BERGAMINI MARCO M D 24 LAMACART CYCLING TEAM 03:48:17.90 29,17 03:46:46.40
156 ERCOLE GIUSEPPE M E 20 ASD ZARD CAVALLINO ROSSO ASTI 03:48:19.30 29,17 03:47:47.47
154 PINTUS PAOLO M D 23 SC IL FORNAIO MACOMER 03:48:17.10 29,17 03:47:29.29
153 LANGFIELD SAM M A 39 RAPHA CONDOR 03:48:16.70 29,18 03:47:10.20
152 GARUSI ENOS M G 12 LAMACART CYCLING TEAM 03:48:16.50 29,18 03:47:26.50
151 MIFFAND JEAN LUC M F 9 AS MONACO TRIATHLON 03:45:42.50 29,51 03:44:47.47
150 FERRABOSCHI MARZIO M F 8 ASD COOPERATORI RE 03:45:42.40 29,51 03:45:25.25
149 KLUGE MARTIN M B 16 LAMACART CYCLING TEAM 03:45:42.20 29,51 03:45:06.06
148 DEIANA SANDRO M A 38 ASD CICLOAMATORI SINISCOLA 03:41:50.10 30,02 03:40:36.36
147 BRESCIANO SIMONE M C 21 CICLI PEPINO 03:41:49.70 30,02 03:41:48.00
146 BORDIGA CLAUDIA F W2 2 PEPERONCINO TEAM 03:41:48.80 30,03 03:41:21.40
145 BELLU GIOVANNI M C 20 SC PATTADA 03:41:48.70 30,03 03:40:24.50
144 MARONGIU FRANCESCO M D 22 SC IL FORNAIO MACOMER 03:41:48.30 30,03 03:41:02.02
143 TORRACO RUGGERO M B 15 ASD MARGHERITA DI SAVOIA 03:41:47.90 30,03 03:41:26.30
142 MOSCHINI MORENO M H 8 ASD MAX LELLI 03:41:47.70 30,03 03:41:22.60
141 ROUGE FLORIAN M A 37 RHONE ALPES 03:41:47.40 30,03 03:40:44.10
140 MAINARDI FABRIZIO M E 19 PAGNONCELLI 03:41:46.10 30,03 03:41:41.41
139 MARINI SEVERINO M G 11 GS FANCELLO CICLI ASD 03:41:46.00 30,03 03:41:09.09
138 RICCO´ ELISABETTA F W1 5 ASD PIANETA BICI 03:41:45.95 30,03 03:41:40.05
137 SANNA ANTONIO MARIA M F 7 UC SIMAXIS 03:41:45.30 30,03 03:40:58.58
136 PERUZZO FRANCO M G 10 ASD ZARD CAVALLINO ROSSO ASTI 03:41:44.50 30,04 03:41:39.50
135 BIANCHI SAMUELE M A 36 ASD MAX LELLI 03:41:44.00 30,04 03:41:37.37
133 GUERINI ROCCO GIUSEPPE M A 35 US BORMIESE 03:40:28.50 30,21 03:39:29.29
134 MU NICOLO´ M H 7 GIORGIONE OZIERESE CARRERA 03:41:43.70 30,04 03:40:45.40
132 FEDERICI MASSIMO M C 19 US BORMIESE 03:40:28.30 30,21 03:39:30.30
131 PIAZZA PIETRO GIORGIO M F 6 ASD ORLANDO 03:39:23.40 30,36 03:39:14.14
130 VASCO ANTONIO M B 14 ISDC TEAM PEZZETTI 03:39:23.00 30,36 03:38:48.00
129 PIU GIUSEPPE M D 21 ASD TRUMA BIKERS THIESI 03:39:22.70 30,36 03:38:06.50
128 MOTTOLA FRANCESCA F W1 4 INDIVIDUALE 03:39:22.20 30,36 03:38:53.00
127 ROUWMAAT ROBERT JAN M A 34 FITNESS CENTRE HUISSEN 03:39:21.50 30,36 03:38:16.30
126 MICCO ALDO M E 18 PEPERONCINO TEAM 03:39:21.10 30,36 03:38:55.55
125 NENCINI ROMANO M H 6 INDIVIDUALE 03:39:20.90 30,36 03:39:19.20
124 MOZZETTI EUGENIO M G 9 ASD PORTALANDIA 03:39:20.80 30,36 03:39:07.30
123 TANGHERI MARCELLO M D 20 SUPERBA CYCLING TEAM 03:39:20.70 30,36 03:38:39.10
122 GIVONETTI PATRIZIO M F 5 ASD VELO 2000 03:39:20.40 30,36 03:39:01.01
121 STEFANI PIER LUIGI M G 8 TEAM CYCLING CENTER 03:39:20.30 30,36 03:39:00.00
120 NOBILI GIOVANNI M F 4 GS FANCELLO CICLI ASD 03:39:20.20 30,36 03:38:44.44
119 NARDINI GIUSEPPE M H 5 GARFAGNANA TEAM CP MORI 03:39:20.15 30,36 03:38:58.15
118 MUCCIOLI DOMENICO M H 4 INDIVIDUALE 03:39:19.70 30,37 03:39:15.15
117 MAGNANI ERIKA F W1 3 PRESTIGIO ROYAL TEAM 03:39:19.60 30,37 03:38:28.60
116 ZENITO FRANCESCO M A 33 ASD ZIBIDO SAN GIACOMO 03:39:18.30 30,37 03:38:41.20
115 BRAGHINI FRANCO M H 3 ASD ORLANDO 03:39:17.60 30,37 03:39:08.08
114 PIRAS MARIO NICOLINO M D 19 ASD CICLOAMATORI SINISCOLA 03:35:22.70 30,92 03:34:09.30
113 DEVINO SEBASTIANO M C 18 ASD TRUMA BIKERS THIESI 03:35:21.70 30,93 03:34:38.30
112 MANERA MARCO M D 18 AREA 231 03:35:21.20 30,93 03:35:05.05
111 MONDAINI GABRIELE M E 17 FRW CICLI MATTEONI 03:35:19.50 30,93 03:34:41.41
110 RAGNI ANNA F W2 1 FRW CICLI MATTEONI 03:35:19.45 30,93 03:34:41.45
109 WARMERDAM FERNAND M C 17 INDIVIDUALE 03:35:19.40 30,93 03:34:46.46
108 SENIS DAVIDE M A 32 MONREAL BIKE 03:35:19.00 30,93 03:33:56.00
107 PADOVAN SANDRO M C 16 UCAT TORINO 03:35:18.95 30,93 03:34:54.05
106 CELENTANO GIANFRANCO M E 16 POLISPORTIVA COM ARZACHENA 03:35:18.90 30,93 03:34:49.30
105 VERONESE ROBERTO M H 2 APF PIROVANO 03:35:18.70 30,93 03:35:05.05
104 CESARINI DAVIDE M C 15 FRW CICLI MATTEONI 03:35:18.60 30,93 03:34:39.39
103 ARRIGO ANTONIO M A 31 BIKE TEAM DEMURTAS NUORO 03:35:18.40 30,93 03:34:16.16
102 ALLIEGRO EMILIO M D 17 APF PIROVANO 03:35:18.30 30,93 03:35:05.05
101 CUCCIARI NINO FAUSTO M C 14 POLISPORTIVA COM ARZACHENA 03:35:18.10 30,93 03:34:47.47
100 PEGORARO ANTONIO M G 7 TEAM G&G 03:35:16.50 30,94 03:35:01.30
99 PROVVEDI LORENZO M E 15 BICISPORTEAM FIRENZE 03:35:16.10 30,94 03:34:20.20
98 GANDOLFO DIEGO BENITO M B 13 ASD TEAM 100 RPM 03:35:16.00 30,94 03:34:47.47
97 CALLIARI STEFANO M E 14 SILMAX CANNONDALE 03:34:08.20 31,10 03:33:59.59
96 VERONESE ALDO M B 12 APF PIROVANO 03:34:08.10 31,10 03:33:53.53
95 TORRACO MATTEO M H 1 ASD MARGHERITA 03:34:08.05 31,10 03:33:50.50
94 CALZOLARI CLAUDIO M E 13 TEAM PEZZOTTI 03:34:07.70 31,10 03:33:38.38
93 BITTI GIUSEPPE M D 16 SC PATTADA 03:32:07.50 31,40 03:30:56.20
91 SCHARTMULLER ASTRID F W1 2 LAMACART CYCLING TEAM 03:28:39.20 31,92 03:28:35.35
92 ERRE LEONARDO M B 11 INDIVIDUALE 03:32:06.90 31,40 03:31:31.00
90 FRESI ANTONIO M A 30 GS FANCELLO CICLI ASD 03:28:34.60 31,93 03:28:02.02
89 MANUNZA GIANLUCA M B 10 ASD EXTREME BIKE CAGLIARI 03:28:33.90 31,93 03:27:30.20
88 GANAU FRANCESCO M B 9 GS FANCELLO CICLI ASD 03:28:31.40 31,94 03:27:57.57
87 BRIJDER BERTIJN M C 13 CYCLESPORT GRONINGEN 03:28:31.00 31,94 03:28:30.30
86 ZECCHINI MARZIO M D 15 ASD COOPERATORI RE 03:28:30.80 31,94 03:28:16.00
85 SALIS GIUSEPPE M F 3 SC IL FORNAIO MACOMER 03:28:30.75 31,94 03:27:46.05
84 AMATORI STEFANO M A 29 BIKE TEAM DEMURTAS NUORO 03:28:30.30 31,94 03:27:29.29
83 GIAROLI MARCO M E 12 ASD COOPERATORI RE 03:28:29.80 31,94 03:28:14.00
82 SOREGAROLI GIANNI M E 11 APF PIROVANO 03:28:29.60 31,94 03:28:15.30
81 ABBONIZIO MARIO M D 14 TURBIKE ROMA 03:28:29.40 31,94 03:27:11.11
80 DRAGO RICCARDO M D 13 SUPERBA CYCLING 03:28:29.30 31,94 03:27:50.50
79 BASONI PIER FRANCESCO M B 8 SC L´OLEANDRO BUDONI 03:28:29.00 31,94 03:28:09.09
78 MURA FRANCESCO M E 10 ASD TRUMA BIKERS THIESI 03:28:28.90 31,95 03:27:43.20
77 DURIO ALBERTO M D 12 VELO VALSESIA 03:28:28.80 31,95 03:27:47.40
76 CENA CLAUDIO M F 2 SILMAX CANNONDALE 03:28:28.50 31,95 03:28:16.40
75 TOLA PIERLUIGI M D 11 SC PATTADA 03:28:28.30 31,95 03:27:16.10
74 STAGNOLI LEONARDO M E 9 LAMACART CYCLING TEAM 03:28:28.25 31,95 03:28:20.25
73 TRIFIRO´ GIUSEPPE M G 6 PALO ALTO FIDIBC CTEAM 03:28:28.10 31,95 03:28:18.00
72 SERRA ROBERTO M C 12 POLISPORTIVA COM ARZACHENA 03:28:27.90 31,95 03:27:58.90
71 BARZASI DANILO M G 5 TEAM BOTTEON VINER 03:28:27.85 31,95 03:28:08.25
70 NIEDDU MATTEO M C 11 SUPERBA CYCLING 03:28:27.70 31,95 03:27:48.60
69 HAVENAAR BERT M E 8 INDIVIDUALE 03:28:27.60 31,95 03:27:16.60
68 PIRAS GIANCARLO M G 4 EDILMORA CYCLE TEAM 03:28:27.58 31,95 03:28:10.10
67 LO GALBO LETTERIO M G 3 POLISPORTIVA COM ARZACHENA 03:28:27.55 31,95 03:27:55.55
66 LIGNAY FLORENT M A 28 AS BERTHELOT MERMOZ 03:28:27.50 31,95 03:28:04.04
65 MORETTI MASSIMO M E 7 FRW CICLI MATTEONI 03:28:27.40 31,95 03:28:08.30
64 GALITTU ENRICO M A 27 SC PEDALE NUORESE 03:28:27.30 31,95 03:27:11.10
63 CIANI MARCO M D 10 GC CASTIGLIONESE 03:28:27.10 31,95 03:28:22.22
62 LELLI GERMANO M D 9 ASD LELLI BIKE 03:28:27.05 31,95 03:28:23.23
61 MASU ALESSANDRO M A 26 PASSIONE ASD 03:28:26.90 31,95 03:28:03.90
60 MONARCA ANTONIO M E 6 FAUSTO COPPI 03:28:26.80 31,95 03:27:47.70
58 ZOLEZZI LORENZO M A 25 ASD TEAM 100 RPM 03:25:24.20 32,42 03:24:58.58
59 PINTUS CLAIT M C 10 SC IL FORNAIO MACOMER 03:25:25.30 32,42 03:24:43.43
57 NISI MARIA CRISTINA F W1 1 ASD MAX LELLI 03:25:23.00 32,43 03:25:18.18
56 ROGGI MATTEO M B 7 BICISPORTEAM FIRENZE 03:25:21.70 32,43 03:24:24.70
55 COCCO GIANFRANCO M E 5 SPOL NICE 03:25:21.00 32,43 03:24:41.41
54 BARTOLI MICHELE M E 4 ASD COOPERATORI RE 03:25:20.40 32,44 03:24:59.59
53 DEIANA FRANCESCO M F 1 GS FANCELLO CICLI ASD 03:25:19.90 32,44 03:24:45.90
52 PANIZZI GIANLUCA M D 8 CICLISTICA BORDIGHERA 03:25:19.70 32,44 03:24:37.20
51 SANNA GIOVANNI M A 24 SC L´OLEANDRO BUDONI 03:24:30.60 32,57 03:24:21.40
50 PAONI PIERANGELO M A 23 ASD BICI MANIA 03:24:28.80 32,57 03:23:07.80
49 ROGGIO MICHELE M A 22 EUROSPIN SERSE COPPI 03:24:11.80 32,62 03:23:28.70
48 PISU NICOLA M A 21 MONREAL BIKE 03:24:07.80 32,63 03:22:42.80
47 RIBBERS JOOP M G 2 CYCLOTEAMNL 03:24:00.40 32,65 03:23:48.48
46 ATZORI ANTONIO M A 20 SC IL FORNAIO MACOMER 03:23:59.90 32,65 03:23:16.30
45 CARACI PLACIDO M E 3 ASD ZIBIDO SAN GIACOMO 03:23:59.40 32,65 03:23:52.30
44 ORTU FILIPPO M B 6 GS RUNNER 03:20:49.20 33,16 03:19:33.33
43 CIFARELLI NICOLA M D 7 ASD TEAM D´ANIELLO SIRINO CYCLING 03:20:43.90 33,18 03:20:12.40
42 PAVESE CLAUDIO M G 1 ASD ZARD CAVALLINO ROSSO ASTI 03:20:42.30 33,18 03:20:09.09
41 POCCIANTI ALESSANDRO M D 6 TEAM PISSEI MONTEVETTOLINI 03:20:41.50 33,19 03:20:14.20
40 DEIANA PAOLO M C 9 EUROSPIN SERSE COPPI 03:20:40.20 33,19 03:19:57.57
39 PERRA STEFANO M C 8 ASD EXTREME BIKE CAGLIARI 03:20:37.80 33,20 03:19:50.30
38 PAU GIANLUCA M C 7 ASD GS CICLISTICO PORTOSCUSO 03:20:37.60 33,20 03:20:17.00
37 DEMELAS ANTONIO M A 19 SC TATANU PIRASTRU 03:20:36.80 33,20 03:19:59.40
36 DORE SEBASTIANO M C 6 EUROSPIN SERSE COPPI 03:20:36.10 33,20 03:19:51.51
35 TOLA VINCENZO M D 5 SC PATTADA 03:20:35.50 33,20 03:19:46.46
34 PIRRONI GIANLUCA M A 18 SC MONTEPONI 03:18:30.60 33,55 03:18:11.10
33 BOSI MASSIMO M C 5 PRESTIGIO ROYAL TEAM 03:18:28.50 33,56 03:18:02.50
32 EGGENER DANIEL M C 4 BIKE CHERASCO TEAM 03:18:28.45 33,56 03:18:10.10
31 ATZORI MARCO M E 2 SC IL FORNAIO MACOMER 03:18:28.20 33,56 03:18:10.10
30 FUNDONI MARIO M E 1 SC LOGUDORO 03:18:28.00 33,56 03:17:44.44
29 ZANETTI MATTEO M B 5 ASD COOPERATORI RE 03:18:26.40 33,56 03:18:09.20
28 SCHIRRU GIAN MARIO M A 17 GS FANCELLO CICLI ASD 03:18:26.30 33,56 03:17:56.56
27 USAI STEFANO M A 16 SC GALLURA 03:15:30.10 34,07 03:14:58.58
26 COLUMBANO DOMENICO PAOLO M A 15 AMSPO CALANGIANUS 03:14:57.60 34,16 03:13:40.50
25 CAPELLO MARCO M D 4 SILMAX CANNONDALE 03:14:52.80 34,18 03:14:52.80
24 CHIAVAZZA ANDREA M A 14 ROERO SPEED BIKE 03:14:52.50 34,18 03:14:30.30
23 GHIRONI MARCELLO M A 13 GS RUNNER 03:14:52.20 34,18 03:13:37.37
22 MASSEREY CHRISTOPHE M D 3 SC L´OLEANDRO BUDONI 03:14:51.20 34,18 03:14:08.08
21 CHINOSI MATTEO M A 12 ASD ZIBIDO SAN GIACOMO 03:14:51.15 34,18 03:14:16.16
20 MINARDI NICOLA M C 3 PRESTIGIO ROYAL TEAM 03:14:50.80 34,18 03:14:23.80
19 BEZZI MARCO M B 4 PRESTIGIO ROYAL TEAM 03:14:50.60 34,18 03:14:23.50
18 OLLA ALBERTO M A 11 BICI MANIA SS ASD 03:14:50.55 34,18 03:13:31.05
17 VACCA MAURO M A 10 GS RUNNER 03:14:50.50 34,18 03:13:37.37
16 FENDONI RENATO M D 2 VELO VALSESIA 03:14:50.40 34,18 03:14:08.00
15 TUCCONI SALVATORE M D 1 GS FANCELLO CICLI ASD 03:14:50.30 34,18 03:14:12.12
14 MORETTI GIOVANNI BATTISTA M B 3 BICI MANIA SS ASD 03:14:50.25 34,18 03:13:31.31
13 PRAOLINI ANTONELLO M A 9 GS FANCELLO CICLI ASD 03:14:50.20 34,18 03:13:27.27
12 BASSO ROBERTO M B 2 EUROSPIN SERSE COPPI 03:14:50.15 34,18 03:14:08.15
11 PAZZINI MARCO M A 8 ZAFF BIKE 03:14:50.00 34,18 03:14:21.21
10 ROSSO FULVIO M A 7 ROERO SPEED BIKE 03:14:49.95 34,19 03:14:25.85
9 CIPRIANI MATTEO M A 6 TEAM PISSEI MONTEVETTOLINI 03:14:49.90 34,19 03:14:22.20
8 VEZZALI FILIPPO M B 1 ASD PIANETA BICI 03:14:49.80 34,19 03:14:45.50
7 PIRAS FRANCESCO M A 5 ASD GS CICLISTICO PORTOSCUSO 03:14:49.75 34,19 03:14:46.45
6 VALENTINI GABRIELE M C 2 PALO ALTO FIDIBC CTEAM 03:14:49.70 34,19 03:14:46.20
5 MASCIA MATTEO M A 4 SC MONTEPONI 03:14:49.60 34,19 03:14:33.33
4 TOLA SIMONE M A 3 EUROSPIN SERSE COPPI 03:14:49.30 34,19 03:14:08.08
3 CIREDDU ROBERTO M C 1 CICLO TEAM CIREDDU 03:14:48.60 34,19 03:13:41.60
2 PITRE DOMENICO M A 2 ASD EXTREME BIKE CAGLIARI 03:14:41.70 34,21 03:14:19.30
1 SERRA SALVATORE M A 1 EUROSPIN SERSE COPPI 03:14:39.00 34,22 03:14:02.02
260 RINALDI ANNALISA F W2 14 ASD COOPERATORI RE 04:58:06.00 22,34 04:57:01.01
261 BENDOTTI DAVIDE M C 38 ASD COOPERATORI RE 04:58:06.50 22,34 04:57:45.45
262 MANICARDI FRANCESCO M H 16 INDIVIDUALE 04:58:07.50 22,34 04:57:44.20
263 PAGLIAROLI MARIA TERESA F W2 15 ACCIAIERIE VALBRUNA 05:05:52.70 21,77 05:04:27.10
264 PITASSI ROBERTO M G 26 GS CICLISMO BUTTRIO 05:07:57.80 21,63 05:07:33.30
265 VIRGOLINI LUIGI M G 27 ASD DA POLDO 05:12:37.00 21,30 05:11:18.18
266 BUSCEMI DIEGO M F 22 ASD BORGO VITTORIA 05:12:48.30 21,29 05:11:55.55
267 GAGLIARDI MARIA TERESA F W2 16 ASD BORGO VITTORIA 05:12:48.50 21,29 05:11:56.40
268 PITZALIS SAMUELE M D 37 INDIVIDUALE 06:44:44.00 16,46 06:43:37.00
269 BERNARD CARLA F W2 17 MUCCHIO SPORTIVO TRENTO ASD 06:46:32.90 16,38 06:45:41.10